createdAt,value
2022-10-25T00:02:22.394Z,4.10
2022-10-25T00:04:51.799Z,3.72
2022-10-25T00:07:23.309Z,4.13
2022-10-25T00:09:53.371Z,4.80
2022-10-25T00:12:22.458Z,4.50
2022-10-25T00:14:51.099Z,5.03
2022-10-25T00:17:21.353Z,4.93
2022-10-25T00:19:50.071Z,4.93
2022-10-25T00:22:19.099Z,5.25
2022-10-25T00:24:47.927Z,6.20
2022-10-25T00:27:16.771Z,5.90
2022-10-25T00:29:45.906Z,7.18
2022-10-25T00:32:16.031Z,6.28
2022-10-25T00:34:46.211Z,6.80
2022-10-25T00:37:15.436Z,6.05
2022-10-25T00:39:44.354Z,5.82
2022-10-25T00:42:20.813Z,6.70
2022-10-25T00:44:57.017Z,7.25
2022-10-25T00:47:39.678Z,7.38
2022-10-25T00:50:32.594Z,7.78
2022-10-25T00:53:10.735Z,8.35
2022-10-25T00:55:45.856Z,7.85
2022-10-25T00:58:18.578Z,7.93
2022-10-25T01:00:47.293Z,8.48
2022-10-25T01:03:20.726Z,8.27
2022-10-25T01:05:53.706Z,7.63
2022-10-25T01:08:23.867Z,8.90
2022-10-25T01:10:53.193Z,8.98
2022-10-25T01:13:21.744Z,9.60
2022-10-25T01:16:08.964Z,9.38
2022-10-25T01:18:45.367Z,9.55
2022-10-25T01:21:46.972Z,10.23
2022-10-25T01:24:59.575Z,10.32
2022-10-25T01:28:07.338Z,10.00
2022-10-25T01:31:28.170Z,9.65
2022-10-25T01:34:03.266Z,9.95
2022-10-25T01:36:46.026Z,10.15
2022-10-25T01:39:21.598Z,10.88
2022-10-25T01:42:07.256Z,10.85
2022-10-25T01:44:49.689Z,10.55
2022-10-25T01:47:27.117Z,11.25
2022-10-25T01:50:04.915Z,10.90
2022-10-25T01:52:35.303Z,11.65
2022-10-25T01:55:10.327Z,11.30
2022-10-25T01:58:08.579Z,10.98
2022-10-25T02:00:49.947Z,11.20
2022-10-25T02:03:30.330Z,11.38
2022-10-25T02:06:16.379Z,11.48
2022-10-25T02:08:55.499Z,11.25
2022-10-25T02:11:27.206Z,12.35
2022-10-25T02:14:08.105Z,11.63
2022-10-25T02:16:42.244Z,11.55
2022-10-25T02:19:18.927Z,11.77
2022-10-25T02:21:52.817Z,11.10
2022-10-25T02:24:27.298Z,11.30
2022-10-25T02:26:59.790Z,11.27
2022-10-25T02:29:34.410Z,10.82
2022-10-25T02:32:04.975Z,11.50
2022-10-25T02:34:35.613Z,10.30
2022-10-25T02:37:04.139Z,10.27
2022-10-25T02:39:34.782Z,9.77
2022-10-25T02:42:03.652Z,10.13
2022-10-25T02:44:32.770Z,9.50
2022-10-25T02:47:02.470Z,10.57
2022-10-25T02:49:31.901Z,9.75
2022-10-25T02:52:02.698Z,10.02
2022-10-25T02:54:31.395Z,9.60
2022-10-25T02:57:00.261Z,9.77
2022-10-25T02:59:29.761Z,10.25
2022-10-25T03:01:58.439Z,10.23
2022-10-25T03:04:27.173Z,7.78
2022-10-25T03:06:57.833Z,7.65
2022-10-25T03:09:27.809Z,6.30
2022-10-25T03:11:56.682Z,4.93
2022-10-25T03:14:27.193Z,5.20
2022-10-25T03:16:56.929Z,5.40
2022-10-25T03:19:25.617Z,5.03
2022-10-25T03:21:54.543Z,4.63
2022-10-25T03:24:24.506Z,3.92
2022-10-25T03:26:54.552Z,3.67
2022-10-25T03:29:23.533Z,3.13
2022-10-25T03:31:54.073Z,3.20
2022-10-25T03:34:23.415Z,3.83
2022-10-25T03:36:52.457Z,3.33
2022-10-25T03:39:20.972Z,4.03
2022-10-25T03:41:50.621Z,4.82
2022-10-25T03:44:20.998Z,5.35
2022-10-25T03:46:49.965Z,7.38
2022-10-25T03:49:18.339Z,8.15
2022-10-25T03:51:51.105Z,8.60
2022-10-25T03:54:25.524Z,8.93
2022-10-25T03:56:57.168Z,10.17
2022-10-25T03:59:28.107Z,10.45
2022-10-25T04:01:57.060Z,9.10
2022-10-25T04:04:27.340Z,10.52
2022-10-25T04:06:56.426Z,10.60
2022-10-25T04:09:27.775Z,10.48
2022-10-25T04:11:57.412Z,11.15
2022-10-25T04:14:30.474Z,10.80
2022-10-25T04:16:59.514Z,11.35
2022-10-25T04:19:28.501Z,11.52
2022-10-25T04:21:58.109Z,10.27
2022-10-25T04:24:28.772Z,11.32
2022-10-25T04:26:59.034Z,10.88
2022-10-25T04:29:29.268Z,11.20
2022-10-25T04:31:58.994Z,11.60
2022-10-25T04:34:28.037Z,11.38
2022-10-25T04:36:56.559Z,12.07
2022-10-25T04:39:26.645Z,10.93
2022-10-25T04:41:56.794Z,11.52
2022-10-25T04:44:25.828Z,11.27
2022-10-25T04:46:56.173Z,11.95
2022-10-25T04:49:25.676Z,11.48
2022-10-25T04:51:54.340Z,11.80
2022-10-25T04:54:23.557Z,12.55
2022-10-25T04:56:52.091Z,12.63
2022-10-25T04:59:20.602Z,11.65
2022-10-25T05:01:49.392Z,11.05
2022-10-25T05:04:20.267Z,12.82
2022-10-25T05:06:51.284Z,11.07
2022-10-25T05:09:19.994Z,10.48
2022-10-25T05:11:55.002Z,9.32
2022-10-25T05:14:23.909Z,9.35
2022-10-25T05:16:56.549Z,9.48
2022-10-25T05:19:28.046Z,10.35
2022-10-25T05:21:57.979Z,11.27
2022-10-25T05:24:28.032Z,12.10
2022-10-25T05:26:57.716Z,11.32
2022-10-25T05:29:27.974Z,10.98
2022-10-25T05:31:57.584Z,11.02
2022-10-25T05:34:30.159Z,11.25
2022-10-25T05:37:01.553Z,11.35
2022-10-25T05:39:31.093Z,10.88
2022-10-25T05:42:00.252Z,12.45
2022-10-25T05:44:29.326Z,11.73
2022-10-25T05:46:57.970Z,13.15
2022-10-25T05:49:28.942Z,13.60
2022-10-25T05:51:57.488Z,15.93
2022-10-25T05:54:26.709Z,16.00
2022-10-25T05:56:55.234Z,16.27
2022-10-25T05:59:24.060Z,15.63
2022-10-25T06:01:53.880Z,16.77
2022-10-25T06:04:24.006Z,16.90
2022-10-25T06:06:54.172Z,17.70
2022-10-25T06:09:30.931Z,16.80
2022-10-25T06:12:00.289Z,14.65
2022-10-25T06:14:29.179Z,15.10
2022-10-25T06:16:58.834Z,16.05
2022-10-25T06:19:27.283Z,15.38
2022-10-25T06:21:59.888Z,15.52
2022-10-25T06:24:30.815Z,14.77
2022-10-25T06:27:00.003Z,15.32
2022-10-25T06:29:29.055Z,14.82
2022-10-25T06:31:58.420Z,15.43
2022-10-25T06:34:26.982Z,15.75
2022-10-25T06:36:57.579Z,15.38
2022-10-25T06:39:26.906Z,16.65
2022-10-25T06:41:57.215Z,15.18
2022-10-25T06:44:27.540Z,16.63
2022-10-25T06:47:16.305Z,16.95
2022-10-25T06:49:45.027Z,17.60
2022-10-25T06:52:15.403Z,18.27
2022-10-25T06:54:43.805Z,18.52
2022-10-25T06:57:12.486Z,18.55
2022-10-25T06:59:42.695Z,18.88
2022-10-25T07:02:14.027Z,18.58
2022-10-25T07:04:42.982Z,17.77
2022-10-25T07:07:16.304Z,18.60
2022-10-25T07:09:46.972Z,19.60
2022-10-25T07:12:15.936Z,18.73
2022-10-25T07:14:44.409Z,19.70
2022-10-25T07:17:12.829Z,19.10
2022-10-25T07:19:41.774Z,19.98
2022-10-25T07:22:10.516Z,17.90
2022-10-25T07:24:39.896Z,18.83
2022-10-25T07:27:10.798Z,18.92
2022-10-25T07:29:39.517Z,18.88
2022-10-25T07:32:08.377Z,19.35
2022-10-25T07:34:38.050Z,17.75
2022-10-25T07:37:08.437Z,17.10
2022-10-25T07:39:37.612Z,16.42
2022-10-25T07:42:06.726Z,17.05
2022-10-25T07:44:37.302Z,16.63
2022-10-25T07:47:06.244Z,15.70
2022-10-25T07:49:39.067Z,16.85
2022-10-25T07:52:08.421Z,16.77
2022-10-25T07:54:37.326Z,14.98
2022-10-25T07:57:06.795Z,15.93
2022-10-25T07:59:36.944Z,13.90
2022-10-25T08:02:05.825Z,13.90
2022-10-25T08:04:34.915Z,14.13
2022-10-25T08:07:06.659Z,13.55
2022-10-25T08:09:39.053Z,15.70
2022-10-25T08:12:08.121Z,14.02
2022-10-25T08:14:41.467Z,15.65
2022-10-25T08:17:13.680Z,15.68
2022-10-25T08:19:43.442Z,15.98
2022-10-25T08:22:14.090Z,16.30
2022-10-25T08:24:42.708Z,15.45
2022-10-25T08:27:11.220Z,16.30
2022-10-25T08:29:43.313Z,17.02
2022-10-25T08:32:11.869Z,16.42
2022-10-25T08:34:40.663Z,15.50
2022-10-25T08:37:13.327Z,15.95
2022-10-25T08:39:41.816Z,16.50
2022-10-25T08:42:25.102Z,16.23
2022-10-25T08:45:05.433Z,16.13
2022-10-25T08:47:40.391Z,15.02
2022-10-25T08:50:18.528Z,13.95
2022-10-25T08:52:51.496Z,12.40
2022-10-25T08:55:31.467Z,12.55
2022-10-25T08:58:04.644Z,12.43
2022-10-25T09:00:41.203Z,12.52
2022-10-25T09:03:17.292Z,11.75
2022-10-25T09:06:02.562Z,11.13
2022-10-25T09:08:59.931Z,11.38
2022-10-25T09:11:48.348Z,10.70
2022-10-25T09:14:29.727Z,11.05
2022-10-25T09:17:09.556Z,10.70
2022-10-25T09:19:51.982Z,10.80
2022-10-25T09:22:27.552Z,11.27
2022-10-25T09:25:02.992Z,11.45
2022-10-25T09:30:10.431Z,11.65
2022-10-25T09:32:44.548Z,11.32
2022-10-25T09:35:19.735Z,12.23
2022-10-25T09:37:54.433Z,10.05
2022-10-25T09:40:32.355Z,9.95
2022-10-25T09:43:08.199Z,9.32
2022-10-25T09:45:48.379Z,9.45
2022-10-25T09:48:29.517Z,8.40
2022-10-25T09:51:08.177Z,8.75
2022-10-25T09:53:42.005Z,8.48
2022-10-25T09:56:10.771Z,9.30
2022-10-25T09:58:42.561Z,8.85
2022-10-25T10:01:18.532Z,9.20
2022-10-25T10:03:53.202Z,10.15
2022-10-25T10:06:29.951Z,9.55
2022-10-25T10:11:33.967Z,10.40
2022-10-25T10:14:11.662Z,9.65
2022-10-25T10:16:47.022Z,9.68
2022-10-25T10:21:56.968Z,9.07
2022-10-25T10:24:30.649Z,9.10
2022-10-25T10:27:02.225Z,9.13
2022-10-25T10:29:36.580Z,9.45
2022-10-25T10:32:22.957Z,9.43
2022-10-25T10:34:57.771Z,8.15
2022-10-25T10:37:28.237Z,8.52
2022-10-25T10:39:59.076Z,9.20
2022-10-25T10:42:37.069Z,9.25
2022-10-25T10:45:18.072Z,9.75
2022-10-25T10:47:58.609Z,9.88
2022-10-25T10:50:32.819Z,8.98
2022-10-25T10:53:04.553Z,8.30
2022-10-25T10:55:37.612Z,8.13
2022-10-25T10:58:09.313Z,7.80
2022-10-25T11:00:39.000Z,7.60
2022-10-25T11:03:07.546Z,6.95
2022-10-25T11:05:41.443Z,7.38
2022-10-25T11:08:21.144Z,7.15
2022-10-25T11:10:49.492Z,7.63
2022-10-25T11:13:21.360Z,7.18
2022-10-25T11:16:37.582Z,7.57
2022-10-25T11:19:47.856Z,8.33
2022-10-25T11:25:33.375Z,6.50
2022-10-25T11:28:24.975Z,6.82
2022-10-25T11:31:06.286Z,6.20
2022-10-25T11:33:52.591Z,5.53
2022-10-25T11:36:39.698Z,6.32
2022-10-25T11:39:33.717Z,5.28
2022-10-25T11:42:17.977Z,5.80
2022-10-25T11:45:20.043Z,4.82
2022-10-25T11:48:09.446Z,4.70
2022-10-25T11:50:49.271Z,5.38
2022-10-25T11:53:40.603Z,4.93
2022-10-25T11:56:25.825Z,4.32
2022-10-25T11:59:05.505Z,4.15
2022-10-25T12:01:53.444Z,4.97
2022-10-25T12:04:53.890Z,4.43
2022-10-25T12:07:32.491Z,4.32
2022-10-25T12:10:16.268Z,3.50
2022-10-25T12:12:52.067Z,3.75
2022-10-25T12:15:25.757Z,4.10
2022-10-25T12:17:54.847Z,3.72
2022-10-25T12:20:28.953Z,3.13
2022-10-25T12:23:03.453Z,3.63
2022-10-25T12:25:39.257Z,3.28
2022-10-25T12:28:23.244Z,3.25
2022-10-25T12:30:59.712Z,2.85
2022-10-25T12:33:38.165Z,2.70
2022-10-25T12:36:15.764Z,3.13
2022-10-25T12:38:45.376Z,2.20
2022-10-25T12:41:24.503Z,2.90
2022-10-25T12:44:17.635Z,2.50
2022-10-25T12:47:08.758Z,2.80
2022-10-25T12:50:07.739Z,2.60
2022-10-25T12:52:38.073Z,2.40
2022-10-25T12:55:40.478Z,2.83
2022-10-25T12:58:34.108Z,2.42
2022-10-25T13:01:26.111Z,2.55
2022-10-25T13:04:23.532Z,2.75
2022-10-25T13:06:55.201Z,2.30
2022-10-25T13:09:27.177Z,2.38
2022-10-25T13:12:02.631Z,2.70
2022-10-25T13:14:36.608Z,5.03
2022-10-25T13:18:02.634Z,2.97
2022-10-25T13:20:51.282Z,2.80
2022-10-25T13:23:59.713Z,2.53
2022-10-25T13:27:14.557Z,3.10
2022-10-25T13:30:26.162Z,2.58
2022-10-25T13:33:33.676Z,3.20
2022-10-25T13:36:07.240Z,3.03
2022-10-25T13:38:40.148Z,3.42
2022-10-25T13:41:20.789Z,2.50
2022-10-25T13:44:26.836Z,2.45
2022-10-25T13:46:56.877Z,2.40
2022-10-25T13:49:35.395Z,2.47
2022-10-25T13:52:07.370Z,2.15
2022-10-25T13:54:51.072Z,2.55
2022-10-25T13:57:50.920Z,2.65
2022-10-25T14:00:57.782Z,2.53
2022-10-25T14:03:51.256Z,2.45
2022-10-25T14:06:32.735Z,2.65
2022-10-25T14:09:22.211Z,2.15
2022-10-25T14:11:56.229Z,2.90
2022-10-25T14:14:34.198Z,2.63
2022-10-25T14:17:17.762Z,2.45
2022-10-25T14:19:50.217Z,3.42
2022-10-25T14:22:31.946Z,2.90
2022-10-25T14:25:05.035Z,3.05
2022-10-25T14:27:36.376Z,3.17
2022-10-25T14:30:24.269Z,2.65
2022-10-25T14:32:56.847Z,2.88
2022-10-25T14:35:38.745Z,2.30
2022-10-25T14:38:21.519Z,2.83
2022-10-25T14:40:59.378Z,2.90
2022-10-25T14:43:35.337Z,3.45
2022-10-25T14:46:33.024Z,3.15
2022-10-25T14:49:27.793Z,2.30
2022-10-25T14:52:06.298Z,2.20
2022-10-25T14:55:07.599Z,2.42
2022-10-25T14:57:52.018Z,3.50
2022-10-25T15:00:36.609Z,2.88
2022-10-25T15:03:14.165Z,2.70
2022-10-25T15:06:07.008Z,2.08
2022-10-25T15:12:24.591Z,2.40
2022-10-25T15:15:19.206Z,2.35
2022-10-25T15:18:00.869Z,2.85
2022-10-25T15:21:04.986Z,2.45
2022-10-25T15:23:45.436Z,2.40
2022-10-25T15:26:44.488Z,2.15
2022-10-25T15:29:50.193Z,2.63
2022-10-25T15:32:26.567Z,2.90
2022-10-25T15:34:59.081Z,2.25
2022-10-25T15:37:49.247Z,2.63
2022-10-25T15:40:31.427Z,2.38
2022-10-25T15:43:29.206Z,2.30
2022-10-25T15:46:01.696Z,2.58
2022-10-25T15:48:41.137Z,2.67
2022-10-25T15:51:21.655Z,2.50
2022-10-25T15:53:52.118Z,3.53
2022-10-25T15:56:25.403Z,3.40
2022-10-25T15:59:14.152Z,3.13
2022-10-25T16:01:49.161Z,2.90
2022-10-25T16:04:44.161Z,3.40
2022-10-25T16:07:14.510Z,3.75
2022-10-25T16:09:57.294Z,5.07
2022-10-25T16:12:39.246Z,4.47
2022-10-25T16:15:16.634Z,3.75
2022-10-25T16:17:50.368Z,3.00
2022-10-25T16:20:26.814Z,4.07
2022-10-25T16:22:57.217Z,4.60
2022-10-25T16:25:33.127Z,4.15
2022-10-25T16:28:07.704Z,4.15
2022-10-25T16:30:43.126Z,3.88
2022-10-25T16:33:37.207Z,3.97
2022-10-25T16:36:18.014Z,3.63
2022-10-25T16:38:47.983Z,3.97
2022-10-25T16:41:45.560Z,3.70
2022-10-25T16:44:32.393Z,4.15
2022-10-25T16:47:08.950Z,4.20
2022-10-25T16:49:43.263Z,4.82
2022-10-25T16:52:12.336Z,5.25
2022-10-25T16:54:58.457Z,5.38
2022-10-25T16:57:35.008Z,4.95
2022-10-25T17:00:06.365Z,4.88
2022-10-25T17:02:38.666Z,5.28
2022-10-25T17:05:19.932Z,5.32
2022-10-25T17:07:49.211Z,5.93
2022-10-25T17:10:22.873Z,6.85
2022-10-25T17:12:53.843Z,8.63
2022-10-25T17:15:24.051Z,7.63
2022-10-25T17:17:54.000Z,7.85
2022-10-25T17:20:26.208Z,10.35
2022-10-25T17:22:57.030Z,8.23
2022-10-25T17:25:26.095Z,8.07
2022-10-25T17:27:55.671Z,7.80
2022-10-25T17:30:24.406Z,8.68
2022-10-25T17:32:54.486Z,8.48
2022-10-25T17:35:29.675Z,7.32
2022-10-25T17:40:27.698Z,9.32
2022-10-25T17:42:56.349Z,9.68
2022-10-25T17:45:25.408Z,9.95
2022-10-25T17:47:54.474Z,9.80
2022-10-25T17:50:27.295Z,10.25
2022-10-25T17:52:57.894Z,10.02
2022-10-25T17:55:33.113Z,14.23
2022-10-25T17:58:06.613Z,12.23
2022-10-25T18:00:43.218Z,11.38
2022-10-25T18:03:13.133Z,10.18
2022-10-25T18:05:48.512Z,10.70
2022-10-25T18:08:19.401Z,11.38
2022-10-25T18:10:48.854Z,10.85
2022-10-25T18:13:25.178Z,10.77
2022-10-25T18:15:55.645Z,10.95
2022-10-25T18:18:25.812Z,10.90
2022-10-25T18:21:17.082Z,12.07
2022-10-25T18:23:50.419Z,11.30
2022-10-25T18:26:21.269Z,11.95
2022-10-25T18:28:55.789Z,11.45
2022-10-25T18:31:29.258Z,10.70
2022-10-25T18:34:00.437Z,12.70
2022-10-25T18:36:34.659Z,10.82
2022-10-25T18:39:04.540Z,11.55
2022-10-25T18:41:38.130Z,11.45
2022-10-25T18:44:15.089Z,12.27
2022-10-25T18:46:49.292Z,11.57
2022-10-25T18:49:19.763Z,12.55
2022-10-25T18:51:51.453Z,11.85
2022-10-25T18:54:20.416Z,14.52
2022-10-25T18:56:51.778Z,12.38
2022-10-25T18:59:23.707Z,12.07
2022-10-25T19:02:01.422Z,13.15
2022-10-25T19:04:32.648Z,11.23
2022-10-25T19:07:04.519Z,11.98
2022-10-25T19:09:34.147Z,12.30
2022-10-25T19:12:07.760Z,13.07
2022-10-25T19:17:42.463Z,11.20
2022-10-25T19:20:14.584Z,12.20
2022-10-25T19:22:47.069Z,11.50
2022-10-25T19:25:19.112Z,12.13
2022-10-25T19:27:50.982Z,11.85
2022-10-25T19:30:21.149Z,12.90
2022-10-25T19:32:50.773Z,11.57
2022-10-25T19:35:22.816Z,11.95
2022-10-25T19:37:56.817Z,12.63
2022-10-25T19:40:27.584Z,12.23
2022-10-25T19:42:57.179Z,12.70
2022-10-25T19:45:27.595Z,13.43
2022-10-25T19:48:00.733Z,12.68
2022-10-25T19:50:29.857Z,11.82
2022-10-25T19:53:06.150Z,12.55
2022-10-25T19:55:35.499Z,11.60
2022-10-25T19:58:07.528Z,10.75
2022-10-25T20:00:36.732Z,12.52
2022-10-25T20:03:06.773Z,11.48
2022-10-25T20:05:39.106Z,10.85
2022-10-25T20:08:09.816Z,10.23
2022-10-25T20:10:40.613Z,9.40
2022-10-25T20:13:11.776Z,9.70
2022-10-25T20:15:53.008Z,9.63
2022-10-25T20:18:24.007Z,8.85
2022-10-25T20:21:00.722Z,8.73
2022-10-25T20:23:32.710Z,8.57
2022-10-25T20:26:10.269Z,8.88
2022-10-25T20:28:39.355Z,9.18
2022-10-25T20:31:08.433Z,8.43
2022-10-25T20:33:39.699Z,8.38
2022-10-25T20:36:13.742Z,8.48
2022-10-25T20:38:47.833Z,8.38
2022-10-25T20:41:19.031Z,7.78
2022-10-25T20:43:54.853Z,7.65
2022-10-25T20:46:32.065Z,7.95
2022-10-25T20:49:03.627Z,8.52
2022-10-25T20:51:32.123Z,8.30
2022-10-25T20:54:05.293Z,7.85
2022-10-25T20:56:37.132Z,8.98
2022-10-25T20:59:06.830Z,8.10
2022-10-25T21:01:35.247Z,7.75
2022-10-25T21:04:06.209Z,7.47
2022-10-25T21:06:34.582Z,7.00
2022-10-25T21:09:05.197Z,6.80
2022-10-25T21:11:33.938Z,7.20
2022-10-25T21:14:02.454Z,7.22
2022-10-25T21:16:31.482Z,7.07
2022-10-25T21:19:04.676Z,6.65
2022-10-25T21:21:36.525Z,6.45
2022-10-25T21:24:08.059Z,6.28
2022-10-25T21:26:36.795Z,6.63
2022-10-25T21:29:09.122Z,6.57
2022-10-25T21:31:37.916Z,6.95
2022-10-25T21:34:06.461Z,7.13
2022-10-25T21:36:39.009Z,7.53
2022-10-25T21:39:13.267Z,7.85
2022-10-25T21:41:43.476Z,9.15
2022-10-25T21:44:12.118Z,8.85
2022-10-25T21:46:40.947Z,8.80
2022-10-25T21:49:11.375Z,9.02
2022-10-25T21:51:42.218Z,8.88
2022-10-25T21:54:13.476Z,9.07
2022-10-25T21:56:42.930Z,8.10
2022-10-25T21:59:12.155Z,9.02
2022-10-25T22:01:41.232Z,9.30
2022-10-25T22:04:11.182Z,8.70
2022-10-25T22:06:41.016Z,9.10
2022-10-25T22:09:11.413Z,9.73
2022-10-25T22:11:45.037Z,9.45
2022-10-25T22:14:15.427Z,8.88
2022-10-25T22:16:45.888Z,8.95
2022-10-25T22:19:19.097Z,9.23
2022-10-25T22:21:52.353Z,8.88
2022-10-25T22:24:24.846Z,8.60
2022-10-25T22:26:53.569Z,8.05
2022-10-25T22:29:22.195Z,8.20
2022-10-25T22:31:51.409Z,8.88
2022-10-25T22:34:20.508Z,8.70
2022-10-25T22:36:49.149Z,8.52
2022-10-25T22:39:17.854Z,7.70
2022-10-25T22:41:53.719Z,8.43
2022-10-25T22:44:23.741Z,8.82
2022-10-25T22:46:53.975Z,8.90
2022-10-25T22:49:24.161Z,8.80
2022-10-25T22:51:53.403Z,8.18
2022-10-25T22:54:22.466Z,8.57
2022-10-25T22:56:55.782Z,8.40
2022-10-25T22:59:27.604Z,8.50
2022-10-25T23:01:56.325Z,8.27
2022-10-25T23:04:26.067Z,8.43
2022-10-25T23:06:55.055Z,8.85
2022-10-25T23:09:24.498Z,8.93
2022-10-25T23:11:54.823Z,8.95
2022-10-25T23:14:25.883Z,9.52
2022-10-25T23:16:55.014Z,9.68
2022-10-25T23:19:23.906Z,9.52
2022-10-25T23:21:52.590Z,10.25
2022-10-25T23:24:21.436Z,10.05
2022-10-25T23:26:50.258Z,11.35
2022-10-25T23:29:20.963Z,10.32
2022-10-25T23:31:53.018Z,10.93
2022-10-25T23:34:25.888Z,10.60
2022-10-25T23:36:57.579Z,10.50
2022-10-25T23:39:31.450Z,11.85
2022-10-25T23:42:02.604Z,12.05
2022-10-25T23:44:32.835Z,11.40
2022-10-25T23:47:05.812Z,11.50
2022-10-25T23:49:36.966Z,12.38
2022-10-25T23:52:07.658Z,12.35
2022-10-25T23:54:36.386Z,12.18
2022-10-25T23:57:05.077Z,12.23
2022-10-25T23:59:36.594Z,12.80
